Time;durP1;ratioP1;P1;durP2;ratioP2;P2;SDS_P1;SDS_P2;PMS_P1;PMS_P2;Temp;Humidity;BMP_temperature;BMP_pressure;BME280_temperature;BME280_humidity;BME280_pressure;Samples;Min_cycle;Max_cycle;Signal;HPM_P1;HPM_P2
2022/10/18 00:00:10;;;;;;;82.68;16.63;;;;;;;;;;4948414;28;20054;-73
2022/10/18 00:02:37;;;;;;;86.28;14.80;;;;;;;;;;4952837;28;20051;-72
2022/10/18 00:05:05;;;;;;;108.38;17.33;;;;;;;;;;4951688;28;20090;-72
2022/10/18 00:07:32;;;;;;;122.13;17.58;;;;;;;;;;4950746;28;20050;-72
2022/10/18 00:09:59;;;;;;;74.80;15.73;;;;;;;;;;4949172;28;20058;-72
2022/10/18 00:12:26;;;;;;;41.92;13.48;;;;;;;;;;4949296;28;20078;-72
2022/10/18 00:14:55;;;;;;;62.13;14.30;;;;;;;;;;4966908;28;20513;-73
2022/10/18 00:17:22;;;;;;;65.68;13.48;;;;;;;;;;4934193;28;20054;-72
2022/10/18 00:19:50;;;;;;;98.88;14.48;;;;;;;;;;4947804;28;20047;-72
2022/10/18 00:22:17;;;;;;;51.20;12.32;;;;;;;;;;4948298;28;20087;-73
2022/10/18 00:24:45;;;;;;;75.70;14.48;;;;;;;;;;4967396;28;20050;-72
2022/10/18 00:27:12;;;;;;;61.90;13.63;;;;;;;;;;4951138;28;20054;-72
2022/10/18 00:29:39;;;;;;;51.40;12.40;;;;;;;;;;4948456;28;20697;-72
2022/10/18 00:32:08;;;;;;;43.50;11.38;;;;;;;;;;4967866;28;20133;-73
2022/10/18 00:34:35;;;;;;;54.17;11.80;;;;;;;;;;4949925;28;20049;-73
2022/10/18 00:37:02;;;;;;;64.93;12.43;;;;;;;;;;4948498;28;20490;-72
2022/10/18 00:39:30;;;;;;;38.35;12.00;;;;;;;;;;4962751;28;20039;-72
2022/10/18 00:41:57;;;;;;;43.88;13.05;;;;;;;;;;4947411;28;20047;-73
2022/10/18 00:44:43;;;;;;;60.70;12.63;;;;;;;;;;4949240;28;20046;-73
2022/10/18 00:47:12;;;;;;;36.80;11.90;;;;;;;;;;4950271;28;20054;-73
2022/10/18 00:49:41;;;;;;;32.38;10.93;;;;;;;;;;4950945;28;20054;-73
2022/10/18 00:52:10;;;;;;;30.63;10.88;;;;;;;;;;4945562;28;20054;-72
2022/10/18 00:54:38;;;;;;;36.28;12.65;;;;;;;;;;4948432;28;20047;-72
2022/10/18 00:57:06;;;;;;;47.55;12.07;;;;;;;;;;4948721;28;20101;-72
2022/10/18 00:59:34;;;;;;;45.58;11.88;;;;;;;;;;4950821;28;20051;-73
2022/10/18 01:02:01;;;;;;;43.20;11.45;;;;;;;;;;4950410;28;20051;-72
2022/10/18 01:04:30;;;;;;;32.72;10.38;;;;;;;;;;4950398;28;20050;-73
2022/10/18 01:07:00;;;;;;;40.45;10.23;;;;;;;;;;4948307;28;20051;-72
2022/10/18 01:09:29;;;;;;;33.25;11.27;;;;;;;;;;4950436;28;20050;-73
2022/10/18 01:12:02;;;;;;;43.33;11.50;;;;;;;;;;4948888;28;20054;-73
2022/10/18 01:14:40;;;;;;;52.95;11.25;;;;;;;;;;4949032;28;20541;-73
2022/10/18 01:17:12;;;;;;;93.82;12.90;;;;;;;;;;4949350;28;20065;-72
2022/10/18 01:20:00;;;;;;;39.50;9.55;;;;;;;;;;4949772;28;20490;-73
2022/10/18 01:22:30;;;;;;;105.10;12.75;;;;;;;;;;4918536;28;20059;-73
2022/10/18 01:25:11;;;;;;;56.88;11.93;;;;;;;;;;4948618;28;20047;-73
2022/10/18 01:27:47;;;;;;;63.78;13.57;;;;;;;;;;4949303;28;20047;-72
2022/10/18 01:30:48;;;;;;;44.65;12.07;;;;;;;;;;4959691;28;20102;-73
2022/10/18 01:33:23;;;;;;;52.97;13.00;;;;;;;;;;4948681;28;20438;-73
2022/10/18 01:35:53;;;;;;;22.58;10.38;;;;;;;;;;4945918;28;20058;-73
2022/10/18 01:38:22;;;;;;;23.42;10.27;;;;;;;;;;4947409;28;20055;-73
2022/10/18 01:40:51;;;;;;;28.27;11.40;;;;;;;;;;4949341;28;20054;-73
2022/10/18 01:43:19;;;;;;;35.92;12.63;;;;;;;;;;4948542;28;20501;-73
2022/10/18 01:45:46;;;;;;;31.48;12.70;;;;;;;;;;4948788;28;20498;-72
2022/10/18 01:48:14;;;;;;;30.75;10.70;;;;;;;;;;4948762;28;20371;-73
2022/10/18 01:50:43;;;;;;;26.50;11.98;;;;;;;;;;4945572;28;20074;-73
2022/10/18 01:53:28;;;;;;;33.53;12.13;;;;;;;;;;4946624;28;20051;-73
2022/10/18 01:56:01;;;;;;;27.65;10.73;;;;;;;;;;4944804;28;20078;-73
2022/10/18 01:58:29;;;;;;;33.00;12.68;;;;;;;;;;4947931;28;20051;-73
2022/10/18 02:01:00;;;;;;;35.75;11.43;;;;;;;;;;4944078;28;20148;-72
2022/10/18 02:03:28;;;;;;;19.05;9.70;;;;;;;;;;4957328;28;20051;-72
2022/10/18 02:06:00;;;;;;;27.20;10.32;;;;;;;;;;4948205;28;20042;-73
2022/10/18 02:08:29;;;;;;;22.88;9.90;;;;;;;;;;4948424;28;20054;-73
2022/10/18 02:11:01;;;;;;;32.28;9.25;;;;;;;;;;4947085;28;20059;-73
2022/10/18 02:13:30;;;;;;;27.77;8.63;;;;;;;;;;4948770;28;20066;-73
2022/10/18 02:16:00;;;;;;;58.05;10.77;;;;;;;;;;4947176;28;20502;-72
2022/10/18 02:18:29;;;;;;;29.80;9.55;;;;;;;;;;4946114;28;20101;-73
2022/10/18 02:20:58;;;;;;;35.13;10.48;;;;;;;;;;4964169;28;20059;-73
2022/10/18 02:23:26;;;;;;;38.78;11.18;;;;;;;;;;4948845;28;20054;-72
2022/10/18 02:25:54;;;;;;;24.02;9.45;;;;;;;;;;4946235;28;20043;-73
2022/10/18 02:28:21;;;;;;;25.23;9.85;;;;;;;;;;4948318;28;21146;-73
2022/10/18 02:30:52;;;;;;;18.27;8.77;;;;;;;;;;4949691;28;20062;-73
2022/10/18 02:33:22;;;;;;;26.80;9.68;;;;;;;;;;4949095;28;20070;-72
2022/10/18 02:35:52;;;;;;;27.48;9.27;;;;;;;;;;4947206;28;20050;-73
2022/10/18 02:38:21;;;;;;;28.35;8.15;;;;;;;;;;4944235;28;20779;-73
2022/10/18 02:40:48;;;;;;;23.55;7.75;;;;;;;;;;4944138;28;20051;-73
2022/10/18 02:43:15;;;;;;;16.48;7.47;;;;;;;;;;4947990;28;20046;-72
2022/10/18 02:45:43;;;;;;;20.00;7.88;;;;;;;;;;4949456;28;20062;-73
2022/10/18 02:48:10;;;;;;;16.08;8.02;;;;;;;;;;4946400;28;20051;-73
2022/10/18 02:50:37;;;;;;;26.98;9.35;;;;;;;;;;4948167;28;20498;-73
2022/10/18 02:53:04;;;;;;;29.02;8.18;;;;;;;;;;4950372;28;20149;-73
2022/10/18 02:55:33;;;;;;;19.85;7.72;;;;;;;;;;4947167;28;20398;-73
2022/10/18 02:58:00;;;;;;;30.40;7.75;;;;;;;;;;4961462;28;20054;-73
2022/10/18 03:00:27;;;;;;;35.72;6.90;;;;;;;;;;4947951;28;20047;-73
2022/10/18 03:02:54;;;;;;;17.55;6.90;;;;;;;;;;4946761;28;20054;-73
2022/10/18 03:05:22;;;;;;;16.52;6.80;;;;;;;;;;4947494;28;20062;-73
2022/10/18 03:07:49;;;;;;;24.77;8.25;;;;;;;;;;4946752;28;20063;-72
2022/10/18 03:10:16;;;;;;;31.83;9.77;;;;;;;;;;4948423;28;20058;-73
2022/10/18 03:12:45;;;;;;;18.05;8.02;;;;;;;;;;4945156;28;20051;-73
2022/10/18 03:15:12;;;;;;;18.77;7.57;;;;;;;;;;4950848;28;20047;-73
2022/10/18 03:17:39;;;;;;;25.90;8.25;;;;;;;;;;4950548;28;20051;-73
2022/10/18 03:20:07;;;;;;;29.10;8.02;;;;;;;;;;4951367;28;20069;-73
2022/10/18 03:22:34;;;;;;;18.92;7.70;;;;;;;;;;4968835;28;20058;-73
2022/10/18 03:25:01;;;;;;;18.33;7.28;;;;;;;;;;4950890;28;20051;-73
2022/10/18 03:27:28;;;;;;;20.90;7.00;;;;;;;;;;4950633;28;20055;-73
2022/10/18 03:29:58;;;;;;;22.25;7.68;;;;;;;;;;4949109;28;20553;-72
2022/10/18 03:32:25;;;;;;;20.20;7.03;;;;;;;;;;4951306;28;20065;-73
2022/10/18 03:34:52;;;;;;;16.65;5.68;;;;;;;;;;4950513;28;20054;-73
2022/10/18 03:37:19;;;;;;;21.25;6.03;;;;;;;;;;4949170;28;20051;-73
2022/10/18 03:39:46;;;;;;;19.27;6.15;;;;;;;;;;4952298;28;20058;-73
2022/10/18 03:42:14;;;;;;;21.85;6.13;;;;;;;;;;4953008;28;20516;-72
2022/10/18 03:44:41;;;;;;;16.33;6.07;;;;;;;;;;4948239;28;20062;-73
2022/10/18 03:47:10;;;;;;;18.30;6.47;;;;;;;;;;4950668;28;20442;-73
2022/10/18 03:49:38;;;;;;;20.20;6.30;;;;;;;;;;4950128;28;20073;-73
2022/10/18 03:52:05;;;;;;;14.52;5.65;;;;;;;;;;4951770;28;20560;-73
2022/10/18 03:54:32;;;;;;;14.45;5.43;;;;;;;;;;4951208;28;20058;-73
2022/10/18 03:57:00;;;;;;;22.42;5.82;;;;;;;;;;4948579;28;20062;-73
2022/10/18 03:59:27;;;;;;;17.95;6.10;;;;;;;;;;4949022;28;20059;-72
2022/10/18 04:01:54;;;;;;;23.77;5.65;;;;;;;;;;4948749;28;20499;-73
2022/10/18 04:04:23;;;;;;;18.98;6.05;;;;;;;;;;4951029;28;20056;-73
2022/10/18 04:06:50;;;;;;;21.17;5.35;;;;;;;;;;4949693;28;20051;-73
2022/10/18 04:09:17;;;;;;;18.30;6.13;;;;;;;;;;4952469;28;20634;-73
2022/10/18 04:11:45;;;;;;;22.25;6.32;;;;;;;;;;4965955;28;20105;-72
2022/10/18 04:14:12;;;;;;;22.38;6.28;;;;;;;;;;4949242;28;20441;-72
2022/10/18 04:16:39;;;;;;;22.75;5.70;;;;;;;;;;4936060;29;20054;-73
2022/10/18 04:19:06;;;;;;;19.98;5.88;;;;;;;;;;4926605;29;20070;-73
2022/10/18 04:21:35;;;;;;;14.93;5.30;;;;;;;;;;4928262;29;20048;-72
2022/10/18 04:24:02;;;;;;;15.27;4.95;;;;;;;;;;4925785;29;20056;-73
2022/10/18 04:26:30;;;;;;;17.90;5.18;;;;;;;;;;4927793;29;20087;-72
2022/10/18 04:28:57;;;;;;;21.42;4.93;;;;;;;;;;4927161;29;20052;-73
2022/10/18 04:31:24;;;;;;;17.40;4.85;;;;;;;;;;4927756;29;20055;-73
2022/10/18 04:33:51;;;;;;;22.00;5.75;;;;;;;;;;4925533;29;20495;-72
2022/10/18 04:36:18;;;;;;;21.98;5.07;;;;;;;;;;4928979;29;20059;-73
2022/10/18 04:38:47;;;;;;;32.70;5.55;;;;;;;;;;4927152;29;20054;-73
2022/10/18 04:41:14;;;;;;;22.45;5.63;;;;;;;;;;4921285;29;20732;-73
2022/10/18 04:43:41;;;;;;;19.80;5.47;;;;;;;;;;4927211;29;20047;-72
2022/10/18 04:46:09;;;;;;;19.58;5.50;;;;;;;;;;4927509;29;20758;-72
2022/10/18 04:48:36;;;;;;;29.45;5.00;;;;;;;;;;4928022;29;20058;-73
2022/10/18 04:51:03;;;;;;;15.63;4.45;;;;;;;;;;4924911;29;20876;-73
2022/10/18 04:53:31;;;;;;;19.13;5.20;;;;;;;;;;4926797;29;20602;-72
2022/10/18 04:56:00;;;;;;;17.83;5.35;;;;;;;;;;4927192;29;20753;-72
2022/10/18 04:58:27;;;;;;;18.42;4.57;;;;;;;;;;4927384;29;20064;-73
2022/10/18 05:00:54;;;;;;;22.35;4.85;;;;;;;;;;4924326;29;20051;-72
2022/10/18 05:03:21;;;;;;;19.75;4.45;;;;;;;;;;4927070;29;20058;-73
2022/10/18 05:05:49;;;;;;;18.75;4.97;;;;;;;;;;4927668;29;20043;-72
2022/10/18 05:08:16;;;;;;;16.38;4.90;;;;;;;;;;4925472;29;20070;-72
2022/10/18 05:10:43;;;;;;;21.67;4.75;;;;;;;;;;4927103;29;20055;-72
2022/10/18 05:13:12;;;;;;;20.40;4.78;;;;;;;;;;4926336;29;20106;-73
2022/10/18 05:15:39;;;;;;;16.60;4.78;;;;;;;;;;4932811;28;20062;-72
2022/10/18 05:18:06;;;;;;;20.25;5.78;;;;;;;;;;4944739;28;20051;-72
2022/10/18 05:20:33;;;;;;;18.52;5.43;;;;;;;;;;4947968;28;20058;-72
2022/10/18 05:23:01;;;;;;;26.88;6.22;;;;;;;;;;4948790;28;20506;-73
2022/10/18 05:25:28;;;;;;;20.80;5.50;;;;;;;;;;4949310;28;20054;-72
2022/10/18 05:27:55;;;;;;;23.15;5.75;;;;;;;;;;4949233;28;20058;-72
2022/10/18 05:30:25;;;;;;;19.58;5.78;;;;;;;;;;4944695;28;20146;-72
2022/10/18 05:32:53;;;;;;;47.75;5.10;;;;;;;;;;4964038;28;20058;-72
2022/10/18 05:35:20;;;;;;;24.70;4.10;;;;;;;;;;4944984;28;20109;-72
2022/10/18 05:37:47;;;;;;;22.23;5.65;;;;;;;;;;4945359;28;20469;-72
2022/10/18 05:40:14;;;;;;;17.42;4.70;;;;;;;;;;4964781;28;20051;-72
2022/10/18 05:42:42;;;;;;;16.35;4.75;;;;;;;;;;4947780;28;20046;-72
2022/10/18 05:45:09;;;;;;;20.27;5.68;;;;;;;;;;4966800;28;20070;-73
2022/10/18 05:47:38;;;;;;;17.98;6.50;;;;;;;;;;4949685;28;20564;-72
2022/10/18 05:50:05;;;;;;;17.73;5.07;;;;;;;;;;4941657;28;20047;-72
2022/10/18 05:52:33;;;;;;;16.85;5.10;;;;;;;;;;4945162;28;20062;-72
2022/10/18 05:55:00;;;;;;;13.27;4.32;;;;;;;;;;4966145;28;20058;-72
2022/10/18 05:57:27;;;;;;;16.80;5.20;;;;;;;;;;4966360;28;20066;-73
2022/10/18 05:59:54;;;;;;;18.20;4.38;;;;;;;;;;4949308;28;20117;-72
2022/10/18 06:02:21;;;;;;;18.23;5.00;;;;;;;;;;4948432;28;20054;-72
2022/10/18 06:04:50;;;;;;;11.35;3.85;;;;;;;;;;4948473;28;20058;-73
2022/10/18 06:07:17;;;;;;;11.75;3.85;;;;;;;;;;4950230;28;20420;-73
2022/10/18 06:09:45;;;;;;;8.43;3.97;;;;;;;;;;4945469;28;20049;-72
2022/10/18 06:12:12;;;;;;;9.93;3.00;;;;;;;;;;4948990;28;20050;-72
2022/10/18 06:14:39;;;;;;;11.32;3.47;;;;;;;;;;4948605;28;20410;-73
2022/10/18 06:17:06;;;;;;;7.90;2.60;;;;;;;;;;4949203;28;20065;-72
2022/10/18 06:19:33;;;;;;;5.55;2.40;;;;;;;;;;4948244;28;20051;-73
2022/10/18 06:22:02;;;;;;;8.93;2.95;;;;;;;;;;4947071;28;20066;-72
2022/10/18 06:24:29;;;;;;;9.57;3.00;;;;;;;;;;4948029;28;20054;-72
2022/10/18 06:26:57;;;;;;;31.90;4.05;;;;;;;;;;4949298;28;20510;-72
2022/10/18 06:29:24;;;;;;;9.98;3.20;;;;;;;;;;4945074;28;20081;-72
2022/10/18 06:31:52;;;;;;;12.75;3.17;;;;;;;;;;4948796;28;20059;-73
2022/10/18 06:34:19;;;;;;;7.72;2.72;;;;;;;;;;4948651;28;20047;-73
2022/10/18 06:36:46;;;;;;;12.02;3.00;;;;;;;;;;4948877;28;20522;-73
2022/10/18 06:39:15;;;;;;;9.57;2.85;;;;;;;;;;4949234;28;20387;-72
2022/10/18 06:41:42;;;;;;;13.43;2.58;;;;;;;;;;4948431;28;20050;-73
2022/10/18 06:44:12;;;;;;;10.65;3.35;;;;;;;;;;4949419;28;20058;-72
2022/10/18 06:46:40;;;;;;;8.40;3.13;;;;;;;;;;4952283;28;20100;-72
2022/10/18 06:49:07;;;;;;;12.38;3.10;;;;;;;;;;4954228;28;20051;-72
2022/10/18 06:51:34;;;;;;;9.68;2.75;;;;;;;;;;4950531;28;20046;-72
2022/10/18 06:54:02;;;;;;;7.22;2.28;;;;;;;;;;4949659;28;20058;-73
2022/10/18 06:56:30;;;;;;;14.85;3.17;;;;;;;;;;4951460;28;20047;-72
2022/10/18 06:58:58;;;;;;;15.18;3.80;;;;;;;;;;4952038;28;20058;-73
2022/10/18 07:01:27;;;;;;;22.20;6.07;;;;;;;;;;4952833;28;20578;-72
2022/10/18 07:03:54;;;;;;;12.82;3.13;;;;;;;;;;4952449;28;20396;-72
2022/10/18 07:06:22;;;;;;;12.43;2.90;;;;;;;;;;4947670;28;20055;-72
2022/10/18 07:08:51;;;;;;;11.20;3.60;;;;;;;;;;4952807;28;20498;-72
2022/10/18 07:11:20;;;;;;;12.93;3.88;;;;;;;;;;4949718;28;20490;-72
2022/10/18 07:13:49;;;;;;;10.55;3.17;;;;;;;;;;4968657;28;20521;-73
2022/10/18 07:16:17;;;;;;;15.70;3.25;;;;;;;;;;4952289;28;20043;-72
2022/10/18 07:18:45;;;;;;;21.33;3.88;;;;;;;;;;4945146;28;20055;-72
2022/10/18 07:21:14;;;;;;;12.82;3.38;;;;;;;;;;4950260;28;20051;-72
2022/10/18 07:23:42;;;;;;;12.90;3.17;;;;;;;;;;4945314;28;20058;-72
2022/10/18 07:26:12;;;;;;;12.60;2.95;;;;;;;;;;4950135;28;20082;-72
2022/10/18 07:28:40;;;;;;;12.88;3.50;;;;;;;;;;4946001;28;20070;-72
2022/10/18 07:31:09;;;;;;;12.55;2.90;;;;;;;;;;4947119;28;20062;-72
2022/10/18 07:33:37;;;;;;;20.33;3.42;;;;;;;;;;4953858;28;20058;-72
2022/10/18 07:36:05;;;;;;;19.10;3.53;;;;;;;;;;4952992;28;20108;-72
2022/10/18 07:38:33;;;;;;;17.63;4.05;;;;;;;;;;4950668;28;20061;-73
2022/10/18 07:41:01;;;;;;;14.98;3.42;;;;;;;;;;4951647;28;20066;-72
2022/10/18 07:43:28;;;;;;;19.95;3.58;;;;;;;;;;4968878;28;20050;-72
2022/10/18 07:45:57;;;;;;;29.15;4.43;;;;;;;;;;4951272;28;20066;-72
2022/10/18 07:48:25;;;;;;;19.05;3.67;;;;;;;;;;4947998;28;20050;-72
2022/10/18 07:50:53;;;;;;;29.17;3.75;;;;;;;;;;4951391;28;20089;-72
2022/10/18 07:53:20;;;;;;;21.25;3.83;;;;;;;;;;4945268;28;20059;-72
2022/10/18 07:55:47;;;;;;;18.45;4.22;;;;;;;;;;4949669;28;20501;-72
2022/10/18 07:58:14;;;;;;;18.05;3.70;;;;;;;;;;4951591;28;20078;-72
2022/10/18 08:00:41;;;;;;;18.70;4.40;;;;;;;;;;4951152;28;20493;-72
2022/10/18 08:03:09;;;;;;;23.13;4.05;;;;;;;;;;4947654;28;20047;-73
2022/10/18 08:05:37;;;;;;;19.17;4.60;;;;;;;;;;4950813;28;20057;-72
2022/10/18 08:08:05;;;;;;;17.45;4.25;;;;;;;;;;4966353;28;20093;-73
2022/10/18 08:10:32;;;;;;;27.92;5.43;;;;;;;;;;4946895;28;20055;-72
2022/10/18 08:12:59;;;;;;;20.77;4.03;;;;;;;;;;4947919;28;20047;-73
2022/10/18 08:15:26;;;;;;;21.17;3.88;;;;;;;;;;4944880;28;20051;-72
2022/10/18 08:17:53;;;;;;;18.92;3.97;;;;;;;;;;4962142;28;20042;-72
2022/10/18 08:20:21;;;;;;;22.02;4.22;;;;;;;;;;4968652;28;20054;-72
2022/10/18 08:22:51;;;;;;;15.75;3.55;;;;;;;;;;4951148;28;20585;-72
2022/10/18 08:25:19;;;;;;;21.92;3.30;;;;;;;;;;4968828;28;20498;-73
2022/10/18 08:27:46;;;;;;;26.13;4.18;;;;;;;;;;4963069;28;20047;-72
2022/10/18 08:30:14;;;;;;;20.77;3.63;;;;;;;;;;4950747;28;20125;-72
2022/10/18 08:32:41;;;;;;;22.92;4.20;;;;;;;;;;4948157;28;20051;-73
2022/10/18 08:35:08;;;;;;;26.98;3.47;;;;;;;;;;4968522;28;20050;-72
2022/10/18 08:37:36;;;;;;;29.98;4.50;;;;;;;;;;4946783;28;20422;-73
2022/10/18 08:40:05;;;;;;;23.10;3.53;;;;;;;;;;4949795;28;20058;-73
2022/10/18 08:42:40;;;;;;;15.05;2.70;;;;;;;;;;4943815;28;20070;-72
2022/10/18 08:45:08;;;;;;;15.65;2.55;;;;;;;;;;4949045;28;20071;-72
2022/10/18 08:47:36;;;;;;;15.27;2.53;;;;;;;;;;4949390;28;20043;-72
2022/10/18 08:50:04;;;;;;;33.25;3.15;;;;;;;;;;4949893;28;20058;-73
2022/10/18 08:52:33;;;;;;;28.70;3.10;;;;;;;;;;4948684;28;20058;-72
2022/10/18 08:55:02;;;;;;;23.88;3.40;;;;;;;;;;4949941;28;20055;-73
2022/10/18 08:57:31;;;;;;;18.83;2.72;;;;;;;;;;4946567;28;20487;-73
2022/10/18 08:59:59;;;;;;;21.00;2.10;;;;;;;;;;4964666;28;20055;-72
2022/10/18 09:02:33;;;;;;;23.27;2.85;;;;;;;;;;4951566;28;20055;-72
2022/10/18 09:05:04;;;;;;;17.13;2.35;;;;;;;;;;4966200;28;20058;-72
2022/10/18 09:07:42;;;;;;;23.25;2.83;;;;;;;;;;4951589;28;20147;-72
2022/10/18 09:10:18;;;;;;;20.73;2.30;;;;;;;;;;4948309;28;20050;-73
2022/10/18 09:13:04;;;;;;;23.05;3.00;;;;;;;;;;4947479;28;20050;-73
2022/10/18 09:15:36;;;;;;;21.17;3.03;;;;;;;;;;4948897;28;20061;-72
2022/10/18 09:18:09;;;;;;;21.25;2.33;;;;;;;;;;4948841;28;20051;-72
2022/10/18 09:20:44;;;;;;;13.23;2.13;;;;;;;;;;4943010;28;20089;-73
2022/10/18 09:23:15;;;;;;;22.77;2.38;;;;;;;;;;4966854;28;20062;-72
2022/10/18 09:25:45;;;;;;;15.73;2.38;;;;;;;;;;4964927;28;20058;-72
2022/10/18 09:28:20;;;;;;;17.80;2.30;;;;;;;;;;4946616;28;20059;-72
2022/10/18 09:30:52;;;;;;;19.48;2.08;;;;;;;;;;4945174;28;20106;-72
2022/10/18 09:33:25;;;;;;;14.23;2.33;;;;;;;;;;4943701;28;20065;-72
2022/10/18 09:35:55;;;;;;;19.10;2.22;;;;;;;;;;4948437;28;20105;-72
2022/10/18 09:38:25;;;;;;;12.85;1.70;;;;;;;;;;4943352;28;20054;-73
2022/10/18 09:40:54;;;;;;;18.17;2.22;;;;;;;;;;4942236;28;20617;-73
2022/10/18 09:43:23;;;;;;;11.63;1.65;;;;;;;;;;4949002;28;20059;-71
2022/10/18 09:45:52;;;;;;;17.60;1.98;;;;;;;;;;4949481;28;20679;-72
2022/10/18 09:48:22;;;;;;;16.95;1.83;;;;;;;;;;4949411;28;20434;-72
2022/10/18 09:50:51;;;;;;;23.42;2.83;;;;;;;;;;4950171;28;20058;-72
2022/10/18 09:53:20;;;;;;;15.75;2.05;;;;;;;;;;4944974;28;20043;-73
2022/10/18 09:55:56;;;;;;;17.08;2.88;;;;;;;;;;4948745;28;20051;-72
2022/10/18 09:58:25;;;;;;;16.95;1.85;;;;;;;;;;4950215;28;20057;-72
2022/10/18 10:00:53;;;;;;;17.23;2.08;;;;;;;;;;4948358;28;20871;-72
2022/10/18 10:03:20;;;;;;;14.95;2.53;;;;;;;;;;4965514;28;20054;-72
2022/10/18 10:05:48;;;;;;;20.25;2.53;;;;;;;;;;4961982;28;20047;-72
2022/10/18 10:08:15;;;;;;;16.48;2.95;;;;;;;;;;4942712;28;20142;-72
2022/10/18 10:10:46;;;;;;;13.65;2.08;;;;;;;;;;4947011;28;20046;-72
2022/10/18 10:13:16;;;;;;;22.02;2.17;;;;;;;;;;4948919;28;20047;-73
2022/10/18 10:15:52;;;;;;;17.67;2.17;;;;;;;;;;4948707;28;20073;-73
2022/10/18 10:18:21;;;;;;;33.40;3.20;;;;;;;;;;4949610;28;20057;-73
2022/10/18 10:20:49;;;;;;;16.80;2.30;;;;;;;;;;4945727;28;20055;-72
2022/10/18 10:23:20;;;;;;;14.98;1.95;;;;;;;;;;4964067;28;20050;-73
2022/10/18 10:25:51;;;;;;;17.10;2.17;;;;;;;;;;4946411;28;20053;-73
2022/10/18 10:28:20;;;;;;;18.50;2.08;;;;;;;;;;4966211;28;20065;-73
2022/10/18 10:30:49;;;;;;;18.05;2.33;;;;;;;;;;4947331;28;20065;-73
2022/10/18 10:33:31;;;;;;;18.35;1.85;;;;;;;;;;4949107;28;20090;-73
2022/10/18 10:35:59;;;;;;;13.20;2.75;;;;;;;;;;4948401;28;20465;-73
2022/10/18 10:38:27;;;;;;;12.93;2.10;;;;;;;;;;4947300;28;20541;-73
2022/10/18 10:40:54;;;;;;;12.32;1.80;;;;;;;;;;4947198;28;20058;-73
2022/10/18 10:43:22;;;;;;;16.20;2.22;;;;;;;;;;4945940;28;20047;-73
2022/10/18 10:46:08;;;;;;;11.98;1.77;;;;;;;;;;4946823;28;20051;-73
2022/10/18 10:48:42;;;;;;;20.17;2.17;;;;;;;;;;4961455;28;20114;-74
2022/10/18 10:51:10;;;;;;;23.52;2.28;;;;;;;;;;4966117;28;20050;-73
2022/10/18 10:53:42;;;;;;;15.90;2.13;;;;;;;;;;4948067;28;20047;-72
2022/10/18 10:56:16;;;;;;;13.25;1.70;;;;;;;;;;4946146;28;20054;-72
2022/10/18 10:58:43;;;;;;;;;;;;;;;;;;4946672;28;20061;-72
2022/10/18 11:01:21;;;;;;;12.70;2.05;;;;;;;;;;4960773;28;19930;-73
2022/10/18 11:03:50;;;;;;;12.73;2.20;;;;;;;;;;4946501;28;20058;-72
2022/10/18 11:06:30;;;;;;;13.07;2.63;;;;;;;;;;4965501;28;20051;-73
2022/10/18 11:08:59;;;;;;;18.60;2.15;;;;;;;;;;4946368;28;20050;-72
2022/10/18 11:11:29;;;;;;;15.23;2.22;;;;;;;;;;4947653;28;20062;-72
2022/10/18 11:13:58;;;;;;;16.13;2.00;;;;;;;;;;4945574;28;20055;-73
2022/10/18 11:16:29;;;;;;;13.32;1.70;;;;;;;;;;4946766;28;20063;-73
2022/10/18 11:18:58;;;;;;;18.42;2.00;;;;;;;;;;4945230;28;20050;-73
2022/10/18 11:21:27;;;;;;;14.02;1.52;;;;;;;;;;4947192;28;20145;-73
2022/10/18 11:23:56;;;;;;;13.32;1.85;;;;;;;;;;4940966;28;20057;-73
2022/10/18 11:26:44;;;;;;;13.15;2.13;;;;;;;;;;4948760;28;20514;-73
2022/10/18 11:29:36;;;;;;;20.13;2.30;;;;;;;;;;4944274;28;20086;-73
2022/10/18 11:32:06;;;;;;;14.40;1.98;;;;;;;;;;4929668;28;20055;-73
2022/10/18 11:34:45;;;;;;;17.65;2.47;;;;;;;;;;4952704;28;20061;-73
2022/10/18 11:37:18;;;;;;;20.40;2.08;;;;;;;;;;4950191;28;20054;-73
2022/10/18 11:39:51;;;;;;;15.15;1.98;;;;;;;;;;4966290;28;20047;-73
2022/10/18 11:42:19;;;;;;;;;;;;;;;;;;4951135;28;20057;-73
2022/10/18 11:44:51;;;;;;;18.70;2.30;;;;;;;;;;4953105;28;19922;-73
2022/10/18 11:47:20;;;;;;;14.15;1.60;;;;;;;;;;4954979;28;20414;-73
2022/10/18 11:49:56;;;;;;;12.70;2.05;;;;;;;;;;4949230;28;20453;-72
2022/10/18 11:52:29;;;;;;;12.25;1.70;;;;;;;;;;4951148;28;20066;-73
2022/10/18 11:55:02;;;;;;;12.88;2.08;;;;;;;;;;4949649;28;20061;-72
2022/10/18 11:57:29;;;;;;;;;;;;;;;;;;4949883;28;20043;-73
2022/10/18 12:00:02;;;;;;;11.27;1.63;;;;;;;;;;4949649;28;19922;-73
2022/10/18 12:02:39;;;;;;;11.88;2.13;;;;;;;;;;4966571;28;20094;-73
2022/10/18 12:05:09;;;;;;;18.10;2.25;;;;;;;;;;4951735;28;20050;-73
2022/10/18 12:07:38;;;;;;;12.57;1.80;;;;;;;;;;4964094;28;20054;-73
2022/10/18 12:10:08;;;;;;;11.00;1.52;;;;;;;;;;4941285;29;20047;-73
2022/10/18 12:12:37;;;;;;;13.05;1.88;;;;;;;;;;4942979;28;20063;-73
2022/10/18 12:15:07;;;;;;;14.15;2.35;;;;;;;;;;4950568;28;20062;-73
2022/10/18 12:17:36;;;;;;;13.95;2.08;;;;;;;;;;4929180;29;20067;-72
2022/10/18 12:20:05;;;;;;;8.98;1.75;;;;;;;;;;4928424;29;20059;-72
2022/10/18 12:22:37;;;;;;;15.13;1.77;;;;;;;;;;4928486;29;20056;-73
2022/10/18 12:25:06;;;;;;;17.05;1.85;;;;;;;;;;4930462;29;20427;-73
2022/10/18 12:27:38;;;;;;;18.52;2.20;;;;;;;;;;4926574;29;20051;-73
2022/10/18 12:30:09;;;;;;;11.07;1.95;;;;;;;;;;4928498;29;20384;-73
2022/10/18 12:32:37;;;;;;;8.88;1.83;;;;;;;;;;4922068;29;20055;-73
2022/10/18 12:35:07;;;;;;;9.43;1.42;;;;;;;;;;4927340;29;20066;-72
2022/10/18 12:37:40;;;;;;;18.45;2.17;;;;;;;;;;4926934;29;20421;-73
2022/10/18 12:40:12;;;;;;;11.13;1.63;;;;;;;;;;4926751;29;20052;-74
2022/10/18 12:42:42;;;;;;;14.32;2.15;;;;;;;;;;4927511;29;20047;-73
2022/10/18 12:45:20;;;;;;;11.30;3.00;;;;;;;;;;4924242;29;21557;-73
2022/10/18 12:47:47;;;;;;;19.15;2.35;;;;;;;;;;4923297;29;20046;-73
2022/10/18 12:50:26;;;;;;;11.95;2.03;;;;;;;;;;4927547;29;20051;-73
2022/10/18 12:53:03;;;;;;;14.68;2.40;;;;;;;;;;4921592;29;20052;-73
2022/10/18 12:55:31;;;;;;;14.63;2.22;;;;;;;;;;4923829;29;20817;-72
2022/10/18 12:58:03;;;;;;;17.33;1.90;;;;;;;;;;4928280;29;20074;-72
2022/10/18 13:00:49;;;;;;;9.85;1.40;;;;;;;;;;4925749;29;20052;-73
2022/10/18 13:03:31;;;;;;;17.45;2.10;;;;;;;;;;4925858;29;20051;-73
2022/10/18 13:05:59;;;;;;;11.57;1.77;;;;;;;;;;4922797;29;20048;-73
2022/10/18 13:08:42;;;;;;;14.13;2.15;;;;;;;;;;4927411;29;20077;-73
2022/10/18 13:11:29;;;;;;;6.57;1.17;;;;;;;;;;4928182;29;20066;-73
2022/10/18 13:14:11;;;;;;;16.25;2.30;;;;;;;;;;4925921;29;20047;-72
2022/10/18 13:16:43;;;;;;;18.83;2.80;;;;;;;;;;4923129;29;20059;-73
2022/10/18 13:19:17;;;;;;;10.65;2.17;;;;;;;;;;4928428;29;20764;-73
2022/10/18 13:21:49;;;;;;;7.78;1.48;;;;;;;;;;4929132;29;20056;-73
2022/10/18 13:24:23;;;;;;;12.23;2.65;;;;;;;;;;4923718;29;20051;-72
2022/10/18 13:26:55;;;;;;;13.93;2.60;;;;;;;;;;4924457;29;20059;-73
2022/10/18 13:29:41;;;;;;;17.70;1.63;;;;;;;;;;4926134;29;20495;-73
2022/10/18 13:32:17;;;;;;;17.00;1.85;;;;;;;;;;4921434;29;20059;-74
2022/10/18 13:34:45;;;;;;;10.65;1.42;;;;;;;;;;4927832;29;20070;-73
2022/10/18 13:37:22;;;;;;;14.20;1.90;;;;;;;;;;4926963;29;20607;-73
2022/10/18 13:39:51;;;;;;;14.57;2.28;;;;;;;;;;4927513;29;20134;-73
2022/10/18 13:42:20;;;;;;;13.55;1.90;;;;;;;;;;4924223;29;20059;-73
2022/10/18 13:44:47;;;;;;;9.27;1.60;;;;;;;;;;4926727;29;20060;-73
2022/10/18 13:47:15;;;;;;;15.88;2.75;;;;;;;;;;4926177;29;20506;-73
2022/10/18 13:49:53;;;;;;;12.20;1.75;;;;;;;;;;4925899;29;20077;-72
2022/10/18 13:52:23;;;;;;;17.75;1.85;;;;;;;;;;4923754;29;20055;-73
2022/10/18 13:55:01;;;;;;;18.65;2.08;;;;;;;;;;4919008;29;20067;-73
2022/10/18 13:57:41;;;;;;;10.93;1.52;;;;;;;;;;4926596;29;20690;-73
2022/10/18 14:00:29;;;;;;;12.60;1.45;;;;;;;;;;4926367;29;20047;-73
2022/10/18 14:03:11;;;;;;;12.05;2.05;;;;;;;;;;4920361;29;20299;-73
2022/10/18 14:05:52;;;;;;;9.40;1.40;;;;;;;;;;4926252;29;20069;-72
2022/10/18 14:08:21;;;;;;;17.55;1.92;;;;;;;;;;4926417;29;20048;-73
2022/10/18 14:10:52;;;;;;;11.10;1.52;;;;;;;;;;4924555;29;20047;-73
2022/10/18 14:13:23;;;;;;;13.48;1.65;;;;;;;;;;4926280;29;20066;-72
2022/10/18 14:15:52;;;;;;;12.65;1.52;;;;;;;;;;4929863;28;20146;-72
2022/10/18 14:18:21;;;;;;;12.65;1.85;;;;;;;;;;4946027;28;20138;-72
2022/10/18 14:20:52;;;;;;;12.15;1.63;;;;;;;;;;4950442;28;20050;-73
2022/10/18 14:23:20;;;;;;;10.10;1.35;;;;;;;;;;4950891;28;20050;-72
2022/10/18 14:25:48;;;;;;;14.57;1.88;;;;;;;;;;4965401;28;20430;-73
2022/10/18 14:28:17;;;;;;;13.30;1.67;;;;;;;;;;4949518;28;20059;-73
2022/10/18 14:30:52;;;;;;;8.40;1.52;;;;;;;;;;4951514;28;20054;-72
2022/10/18 14:33:32;;;;;;;14.88;1.73;;;;;;;;;;4960840;28;20058;-73
2022/10/18 14:36:00;;;;;;;12.82;1.30;;;;;;;;;;4964623;28;20498;-73
2022/10/18 14:38:27;;;;;;;13.98;1.90;;;;;;;;;;4962073;28;20513;-72
2022/10/18 14:41:05;;;;;;;11.65;1.60;;;;;;;;;;4946799;28;20058;-72
2022/10/18 14:43:33;;;;;;;10.23;1.38;;;;;;;;;;4950067;28;20054;-72